Time;durP1;ratioP1;P1;durP2;ratioP2;P2;SDS_P1;SDS_P2;PMS_P1;PMS_P2;Temp;Humidity;BMP_temperature;BMP_pressure;BME280_temperature;BME280_humidity;BME280_pressure;Samples;Min_cycle;Max_cycle;Signal;HPM_P1;HPM_P2
2022/10/10 00:01:53;;;;;;;1.38;1.27;;;;;;;;;;5138944;27;20194;-69
2022/10/10 00:04:21;;;;;;;1.30;1.20;;;;;;;;;;5138855;27;20226;-69
2022/10/10 00:06:49;;;;;;;2.00;1.45;;;;;;;;;;5139776;27;20267;-67
2022/10/10 00:09:17;;;;;;;1.40;1.30;;;;;;;;;;5140142;27;20209;-67
2022/10/10 00:11:45;;;;;;;1.55;1.20;;;;;;;;;;5139569;27;20213;-67
2022/10/10 00:14:14;;;;;;;1.25;1.10;;;;;;;;;;5139754;27;20198;-67
2022/10/10 00:16:42;;;;;;;1.27;1.17;;;;;;;;;;5139537;27;20206;-67
2022/10/10 00:19:10;;;;;;;1.45;1.30;;;;;;;;;;5139089;27;20198;-67
2022/10/10 00:21:37;;;;;;;1.30;1.20;;;;;;;;;;5138848;27;20202;-68
2022/10/10 00:24:05;;;;;;;1.45;1.13;;;;;;;;;;5139541;27;20392;-67
2022/10/10 00:26:33;;;;;;;1.50;1.40;;;;;;;;;;5139219;27;20267;-67
2022/10/10 00:29:01;;;;;;;1.42;1.33;;;;;;;;;;5138690;27;20217;-67
2022/10/10 00:31:30;;;;;;;1.30;1.20;;;;;;;;;;5138893;27;20501;-67
2022/10/10 00:33:59;;;;;;;1.35;1.20;;;;;;;;;;5138197;27;20213;-67
2022/10/10 00:36:26;;;;;;;1.60;1.10;;;;;;;;;;5138995;27;20297;-67
2022/10/10 00:38:54;;;;;;;1.48;1.20;;;;;;;;;;5623689;22;20238;-67
2022/10/10 00:41:22;;;;;;;1.30;1.20;;;;;;;;;;5117455;28;20268;-67
2022/10/10 00:44:06;;;;;;;1.30;1.20;;;;;;;;;;5117779;28;20824;-67
2022/10/10 00:46:36;;;;;;;1.73;1.50;;;;;;;;;;5117618;28;20246;-67
2022/10/10 00:49:05;;;;;;;1.58;1.45;;;;;;;;;;5117391;28;20242;-67
2022/10/10 00:51:33;;;;;;;1.60;1.50;;;;;;;;;;5118097;28;20203;-67
2022/10/10 00:54:03;;;;;;;1.25;1.15;;;;;;;;;;5118239;28;20290;-67
2022/10/10 00:56:32;;;;;;;1.08;0.98;;;;;;;;;;5118056;28;20284;-67
2022/10/10 00:59:03;;;;;;;1.20;1.10;;;;;;;;;;5117585;28;20656;-68
2022/10/10 01:01:31;;;;;;;1.10;1.00;;;;;;;;;;5117507;28;20609;-67
2022/10/10 01:04:00;;;;;;;1.35;1.25;;;;;;;;;;5117496;28;20329;-68
2022/10/10 01:06:28;;;;;;;1.30;1.20;;;;;;;;;;5118332;28;20234;-66
2022/10/10 01:08:57;;;;;;;1.30;1.20;;;;;;;;;;5117103;28;20203;-67
2022/10/10 01:11:30;;;;;;;1.13;1.10;;;;;;;;;;5117611;28;20207;-67
2022/10/10 01:14:00;;;;;;;1.40;1.30;;;;;;;;;;5117735;28;20230;-67
2022/10/10 01:16:30;;;;;;;1.40;1.30;;;;;;;;;;5117195;28;20217;-67
2022/10/10 01:19:04;;;;;;;1.15;1.00;;;;;;;;;;5117622;28;20532;-67
2022/10/10 01:21:36;;;;;;;1.20;1.10;;;;;;;;;;5117339;28;20213;-67
2022/10/10 01:24:28;;;;;;;1.13;1.02;;;;;;;;;;5117710;28;20284;-67
2022/10/10 01:27:13;;;;;;;1.40;1.20;;;;;;;;;;5117820;28;20532;-67
2022/10/10 01:29:44;;;;;;;1.30;1.20;;;;;;;;;;5116697;28;20215;-67
2022/10/10 01:32:14;;;;;;;1.30;1.20;;;;;;;;;;5117013;28;20203;-67
2022/10/10 01:34:46;;;;;;;1.30;1.20;;;;;;;;;;5117462;28;20210;-67
2022/10/10 01:37:18;;;;;;;1.20;1.10;;;;;;;;;;5116675;28;20710;-67
2022/10/10 01:39:48;;;;;;;1.20;1.10;;;;;;;;;;5117022;28;20684;-67
2022/10/10 01:42:20;;;;;;;1.20;1.10;;;;;;;;;;5116877;28;20207;-67
2022/10/10 01:44:52;;;;;;;1.75;1.40;;;;;;;;;;5117297;28;20219;-68
2022/10/10 01:47:21;;;;;;;1.25;1.15;;;;;;;;;;5117356;28;20211;-67
2022/10/10 01:49:50;;;;;;;1.20;1.10;;;;;;;;;;5116352;28;20595;-67
2022/10/10 01:52:24;;;;;;;1.27;1.10;;;;;;;;;;5117841;28;20202;-67
2022/10/10 01:54:54;;;;;;;1.40;1.30;;;;;;;;;;5116208;28;20238;-68
2022/10/10 01:57:25;;;;;;;1.40;1.30;;;;;;;;;;5116822;28;20203;-67
2022/10/10 02:00:06;;;;;;;1.42;1.20;;;;;;;;;;5117958;28;20198;-68
2022/10/10 02:02:38;;;;;;;1.20;1.10;;;;;;;;;;5116143;28;20194;-67
2022/10/10 02:05:09;;;;;;;1.13;1.02;;;;;;;;;;5116085;28;20230;-67
2022/10/10 02:07:40;;;;;;;1.45;1.17;;;;;;;;;;5116339;28;20289;-67
2022/10/10 02:10:09;;;;;;;1.33;1.20;;;;;;;;;;5116676;28;20289;-67
2022/10/10 02:12:37;;;;;;;1.42;1.33;;;;;;;;;;5116596;28;20218;-67
2022/10/10 02:15:09;;;;;;;1.25;1.15;;;;;;;;;;5116513;28;20199;-67
2022/10/10 02:17:38;;;;;;;1.00;0.90;;;;;;;;;;5116190;28;20276;-67
2022/10/10 02:20:07;;;;;;;1.25;1.15;;;;;;;;;;5116690;28;20264;-67
2022/10/10 02:22:35;;;;;;;1.30;1.20;;;;;;;;;;5120366;28;20546;-67
2022/10/10 02:25:03;;;;;;;1.20;1.10;;;;;;;;;;5120925;28;20227;-67
2022/10/10 02:27:33;;;;;;;1.10;1.00;;;;;;;;;;5120515;28;20209;-67
2022/10/10 02:30:01;;;;;;;1.10;1.00;;;;;;;;;;5120501;28;20234;-67
2022/10/10 02:32:33;;;;;;;0.90;0.80;;;;;;;;;;5102541;28;20209;-67
2022/10/10 02:35:04;;;;;;;1.30;1.20;;;;;;;;;;5120414;28;20199;-67
2022/10/10 02:37:32;;;;;;;0.93;0.90;;;;;;;;;;5120929;28;20203;-67
2022/10/10 02:40:02;;;;;;;1.17;1.08;;;;;;;;;;5119686;28;20235;-67
2022/10/10 02:42:31;;;;;;;1.40;1.30;;;;;;;;;;5120814;28;20234;-67
2022/10/10 02:44:58;;;;;;;1.10;1.00;;;;;;;;;;5120076;28;20222;-67
2022/10/10 02:47:26;;;;;;;1.10;1.00;;;;;;;;;;5120233;28;20731;-67
2022/10/10 02:49:55;;;;;;;1.20;1.10;;;;;;;;;;5120365;28;20211;-67
2022/10/10 02:52:23;;;;;;;1.05;0.98;;;;;;;;;;5119876;28;20229;-67
2022/10/10 02:54:51;;;;;;;1.27;1.05;;;;;;;;;;5120312;28;20209;-67
2022/10/10 02:57:19;;;;;;;1.20;1.10;;;;;;;;;;5120112;28;20320;-67
2022/10/10 02:59:47;;;;;;;1.10;1.00;;;;;;;;;;5119759;28;20231;-67
2022/10/10 03:02:15;;;;;;;1.00;0.90;;;;;;;;;;5119946;28;20199;-67
2022/10/10 03:04:43;;;;;;;1.35;1.10;;;;;;;;;;5119993;28;20226;-67
2022/10/10 03:07:12;;;;;;;1.10;1.00;;;;;;;;;;5120513;28;20606;-68
2022/10/10 03:09:40;;;;;;;1.80;1.20;;;;;;;;;;5120505;28;20214;-67
2022/10/10 03:12:08;;;;;;;1.10;1.00;;;;;;;;;;5119665;28;20591;-67
2022/10/10 03:14:36;;;;;;;1.58;1.10;;;;;;;;;;5119770;28;20241;-67
2022/10/10 03:17:04;;;;;;;1.10;1.00;;;;;;;;;;5120166;28;20279;-66
2022/10/10 03:19:32;;;;;;;1.20;1.10;;;;;;;;;;5120264;28;20264;-67
2022/10/10 03:22:00;;;;;;;0.90;0.90;;;;;;;;;;5120282;28;20268;-67
2022/10/10 03:24:30;;;;;;;1.35;1.20;;;;;;;;;;5120178;28;20222;-68
2022/10/10 03:26:58;;;;;;;1.20;1.10;;;;;;;;;;5118392;28;20632;-67
2022/10/10 03:29:25;;;;;;;1.52;1.00;;;;;;;;;;5120415;28;20214;-67
2022/10/10 03:31:54;;;;;;;0.93;0.93;;;;;;;;;;5119806;28;20238;-67
2022/10/10 03:34:21;;;;;;;1.10;0.95;;;;;;;;;;5119447;28;20290;-67
2022/10/10 03:36:49;;;;;;;1.35;1.00;;;;;;;;;;5120224;28;20332;-67
2022/10/10 03:39:17;;;;;;;1.10;1.00;;;;;;;;;;5119422;28;20238;-67
2022/10/10 03:41:49;;;;;;;1.30;0.77;;;;;;;;;;5119236;28;20201;-71
2022/10/10 03:44:16;;;;;;;1.20;1.10;;;;;;;;;;5119325;28;20284;-67
2022/10/10 03:46:45;;;;;;;0.80;0.80;;;;;;;;;;5119099;28;20272;-67
2022/10/10 03:49:12;;;;;;;1.45;0.90;;;;;;;;;;5118745;28;20573;-67
2022/10/10 03:51:40;;;;;;;0.98;0.98;;;;;;;;;;5118522;28;20208;-67
2022/10/10 03:54:08;;;;;;;1.20;1.00;;;;;;;;;;5118856;28;20187;-67
2022/10/10 03:56:36;;;;;;;0.90;0.90;;;;;;;;;;5119152;28;20210;-67
2022/10/10 03:59:06;;;;;;;1.15;1.05;;;;;;;;;;5118799;28;20203;-67
2022/10/10 04:01:33;;;;;;;1.02;1.02;;;;;;;;;;5118927;28;20221;-67
2022/10/10 04:04:01;;;;;;;1.20;1.10;;;;;;;;;;5119509;28;20329;-67
2022/10/10 04:06:28;;;;;;;1.05;0.85;;;;;;;;;;5118620;28;20828;-67
2022/10/10 04:08:56;;;;;;;1.17;1.08;;;;;;;;;;5119034;28;20507;-67
2022/10/10 04:11:23;;;;;;;1.33;1.05;;;;;;;;;;5118086;28;20575;-67
2022/10/10 04:13:51;;;;;;;1.10;1.00;;;;;;;;;;5118458;28;20294;-67
2022/10/10 04:16:20;;;;;;;1.00;0.90;;;;;;;;;;5118871;28;20261;-67
2022/10/10 04:18:47;;;;;;;1.10;1.00;;;;;;;;;;5118648;28;20203;-67
2022/10/10 04:21:15;;;;;;;1.17;1.08;;;;;;;;;;5118412;28;20219;-67
2022/10/10 04:23:42;;;;;;;0.90;0.90;;;;;;;;;;5118900;28;20263;-67
2022/10/10 04:26:10;;;;;;;1.00;0.90;;;;;;;;;;5118232;28;20282;-67
2022/10/10 04:28:37;;;;;;;1.00;0.90;;;;;;;;;;5117430;28;20281;-67
2022/10/10 04:31:05;;;;;;;0.98;0.98;;;;;;;;;;5117748;28;20256;-67
2022/10/10 04:33:33;;;;;;;1.50;1.05;;;;;;;;;;5117084;28;20303;-67
2022/10/10 04:36:01;;;;;;;0.90;0.90;;;;;;;;;;5117445;28;20655;-67
2022/10/10 04:38:29;;;;;;;0.93;0.90;;;;;;;;;;5117241;28;20307;-67
2022/10/10 04:40:56;;;;;;;1.08;1.00;;;;;;;;;;5116824;28;20662;-67
2022/10/10 04:43:24;;;;;;;1.35;1.00;;;;;;;;;;5115809;28;20573;-68
2022/10/10 04:45:51;;;;;;;1.10;1.00;;;;;;;;;;5115800;28;20322;-67
2022/10/10 04:48:19;;;;;;;1.13;1.00;;;;;;;;;;5115701;28;20238;-67
2022/10/10 04:50:53;;;;;;;1.63;1.33;;;;;;;;;;5116806;28;20315;-67
2022/10/10 04:53:20;;;;;;;1.20;1.10;;;;;;;;;;5116185;28;20252;-67
2022/10/10 04:55:48;;;;;;;1.20;1.10;;;;;;;;;;5116374;28;20302;-67
2022/10/10 04:58:15;;;;;;;1.13;1.00;;;;;;;;;;5116318;28;20283;-67
2022/10/10 05:00:43;;;;;;;1.30;1.20;;;;;;;;;;5115429;28;20203;-67
2022/10/10 05:03:11;;;;;;;1.25;1.17;;;;;;;;;;5115350;28;20202;-67
2022/10/10 05:05:39;;;;;;;1.20;1.10;;;;;;;;;;5115058;28;20618;-67
2022/10/10 05:08:08;;;;;;;1.30;0.90;;;;;;;;;;5115509;28;20302;-67
2022/10/10 05:10:37;;;;;;;2.13;1.10;;;;;;;;;;5114812;28;20203;-67
2022/10/10 05:13:05;;;;;;;1.00;1.00;;;;;;;;;;5114079;28;20199;-67
2022/10/10 05:15:35;;;;;;;1.10;1.00;;;;;;;;;;5114316;28;20222;-67
2022/10/10 05:18:02;;;;;;;1.10;1.00;;;;;;;;;;5113414;28;20203;-67
2022/10/10 05:20:30;;;;;;;1.48;1.00;;;;;;;;;;5103106;28;20304;-68
2022/10/10 05:22:57;;;;;;;1.00;0.90;;;;;;;;;;5093336;28;20242;-67
2022/10/10 05:25:26;;;;;;;1.20;1.10;;;;;;;;;;5093341;28;20220;-67
2022/10/10 05:27:53;;;;;;;1.10;0.98;;;;;;;;;;5093417;28;20599;-67
2022/10/10 05:30:21;;;;;;;1.67;1.13;;;;;;;;;;5093028;28;20238;-67
2022/10/10 05:32:48;;;;;;;1.17;1.00;;;;;;;;;;5093986;28;20252;-67
2022/10/10 05:35:16;;;;;;;1.38;1.27;;;;;;;;;;5093819;28;20215;-67
2022/10/10 05:37:44;;;;;;;1.38;1.10;;;;;;;;;;5094088;28;20243;-67
2022/10/10 05:40:11;;;;;;;1.20;1.10;;;;;;;;;;5093959;28;20318;-67
2022/10/10 05:42:40;;;;;;;1.17;1.08;;;;;;;;;;5100983;28;20290;-67
2022/10/10 05:45:08;;;;;;;1.35;1.10;;;;;;;;;;5113688;28;20227;-67
2022/10/10 05:47:35;;;;;;;1.42;1.10;;;;;;;;;;5113744;28;20265;-67
2022/10/10 05:50:03;;;;;;;1.30;1.20;;;;;;;;;;5113715;28;20264;-67
2022/10/10 05:52:30;;;;;;;1.40;1.30;;;;;;;;;;5113491;28;20198;-67
2022/10/10 05:54:58;;;;;;;1.20;1.10;;;;;;;;;;5114513;28;20234;-67
2022/10/10 05:57:25;;;;;;;1.55;1.30;;;;;;;;;;5114135;28;20246;-67
2022/10/10 05:59:54;;;;;;;1.00;1.00;;;;;;;;;;5115197;28;20195;-67
2022/10/10 06:02:21;;;;;;;1.00;0.90;;;;;;;;;;5113907;28;20203;-67
2022/10/10 06:04:49;;;;;;;1.23;1.10;;;;;;;;;;5113360;28;20266;-67
2022/10/10 06:07:16;;;;;;;1.20;1.00;;;;;;;;;;5114343;28;20630;-67
2022/10/10 06:09:44;;;;;;;1.20;1.10;;;;;;;;;;5114117;28;20306;-67
2022/10/10 06:12:11;;;;;;;1.65;1.10;;;;;;;;;;5114665;28;20263;-67
2022/10/10 06:14:39;;;;;;;1.13;1.00;;;;;;;;;;5115146;28;20199;-67
2022/10/10 06:17:08;;;;;;;2.92;1.20;;;;;;;;;;5115802;28;20264;-67
2022/10/10 06:19:36;;;;;;;1.25;1.15;;;;;;;;;;5114541;28;20234;-67
2022/10/10 06:22:03;;;;;;;3.17;1.23;;;;;;;;;;5114525;28;20299;-67
2022/10/10 06:24:31;;;;;;;1.23;1.13;;;;;;;;;;5114269;28;20330;-67
2022/10/10 06:26:58;;;;;;;1.65;1.30;;;;;;;;;;5115359;28;20291;-67
2022/10/10 06:29:26;;;;;;;1.33;1.20;;;;;;;;;;5113925;28;20234;-67
2022/10/10 06:31:54;;;;;;;1.80;1.20;;;;;;;;;;5115174;28;20289;-67
2022/10/10 06:34:23;;;;;;;1.20;1.10;;;;;;;;;;5114097;28;20296;-67
2022/10/10 06:36:50;;;;;;;1.27;1.17;;;;;;;;;;5114540;28;20286;-67
2022/10/10 06:39:18;;;;;;;1.45;1.35;;;;;;;;;;5113414;28;20238;-66
2022/10/10 06:41:46;;;;;;;1.77;1.35;;;;;;;;;;5114121;28;20222;-67
2022/10/10 06:44:13;;;;;;;1.70;1.40;;;;;;;;;;5114046;28;20203;-67
2022/10/10 06:46:41;;;;;;;1.50;1.40;;;;;;;;;;5114216;28;20681;-67
2022/10/10 06:49:08;;;;;;;2.17;1.30;;;;;;;;;;5114064;28;20315;-67
2022/10/10 06:51:38;;;;;;;1.40;1.30;;;;;;;;;;5114333;28;20311;-67
2022/10/10 06:54:06;;;;;;;2.05;1.38;;;;;;;;;;5114433;28;20332;-67
2022/10/10 06:56:33;;;;;;;1.40;1.30;;;;;;;;;;5113980;28;20671;-67
2022/10/10 06:59:01;;;;;;;2.47;1.27;;;;;;;;;;5114351;28;20238;-67
2022/10/10 07:01:28;;;;;;;2.38;1.48;;;;;;;;;;5114504;28;20203;-67
2022/10/10 07:03:56;;;;;;;1.10;1.00;;;;;;;;;;5113997;28;20241;-67
2022/10/10 07:06:23;;;;;;;1.42;1.33;;;;;;;;;;5112741;28;20258;-67
2022/10/10 07:08:52;;;;;;;1.65;1.30;;;;;;;;;;5117584;28;20559;-67
2022/10/10 07:11:20;;;;;;;1.77;1.30;;;;;;;;;;5117786;28;20256;-67
2022/10/10 07:13:49;;;;;;;1.80;1.52;;;;;;;;;;5117421;28;20574;-67
2022/10/10 07:16:17;;;;;;;2.03;1.30;;;;;;;;;;5117529;28;20248;-69
2022/10/10 07:18:44;;;;;;;1.63;1.50;;;;;;;;;;5117291;28;20199;-67
2022/10/10 07:21:12;;;;;;;2.33;1.42;;;;;;;;;;5117460;28;20297;-67
2022/10/10 07:23:39;;;;;;;1.45;1.30;;;;;;;;;;5117969;28;20301;-67
2022/10/10 07:26:09;;;;;;;1.63;1.45;;;;;;;;;;5117029;28;20481;-67
2022/10/10 07:28:37;;;;;;;1.35;1.23;;;;;;;;;;5117642;28;20217;-67
2022/10/10 07:31:05;;;;;;;1.73;1.45;;;;;;;;;;5117611;28;20310;-68
2022/10/10 07:33:33;;;;;;;1.35;1.25;;;;;;;;;;5116366;28;20199;-67
2022/10/10 07:36:01;;;;;;;1.40;1.30;;;;;;;;;;5116181;28;20284;-67
2022/10/10 07:38:29;;;;;;;1.98;1.27;;;;;;;;;;5117646;28;20603;-67
2022/10/10 07:40:56;;;;;;;1.45;1.30;;;;;;;;;;5103175;27;20199;-67
2022/10/10 07:43:27;;;;;;;2.47;1.30;;;;;;;;;;5097238;28;20303;-67
2022/10/10 07:45:54;;;;;;;1.30;1.20;;;;;;;;;;5096260;28;20219;-68
2022/10/10 07:48:22;;;;;;;1.30;1.20;;;;;;;;;;5096135;28;20296;-68
2022/10/10 07:50:50;;;;;;;1.63;1.33;;;;;;;;;;5095854;28;20200;-67
2022/10/10 07:53:17;;;;;;;4.32;1.30;;;;;;;;;;5096499;28;20207;-67
2022/10/10 07:55:45;;;;;;;2.28;1.45;;;;;;;;;;5096511;28;20226;-67
2022/10/10 07:58:13;;;;;;;3.58;1.50;;;;;;;;;;5096217;28;20283;-67
2022/10/10 08:00:41;;;;;;;1.30;1.20;;;;;;;;;;5109679;28;20694;-67
2022/10/10 08:03:10;;;;;;;1.50;1.40;;;;;;;;;;5116084;28;20201;-67
2022/10/10 08:05:40;;;;;;;1.55;1.40;;;;;;;;;;5116387;28;20234;-66
2022/10/10 08:08:07;;;;;;;2.13;1.50;;;;;;;;;;5115581;28;20252;-67
2022/10/10 08:10:35;;;;;;;2.33;1.50;;;;;;;;;;5116019;28;20230;-66
2022/10/10 08:13:03;;;;;;;2.72;1.60;;;;;;;;;;5116125;28;20195;-66
2022/10/10 08:15:31;;;;;;;3.10;1.60;;;;;;;;;;5116046;28;20249;-66
2022/10/10 08:18:00;;;;;;;2.03;1.45;;;;;;;;;;5115987;28;20234;-67
2022/10/10 08:20:28;;;;;;;1.90;1.60;;;;;;;;;;5115872;28;20199;-66
2022/10/10 08:22:55;;;;;;;1.83;1.60;;;;;;;;;;5116550;28;20238;-66
2022/10/10 08:25:22;;;;;;;2.22;1.70;;;;;;;;;;5115841;28;20223;-67
2022/10/10 08:27:50;;;;;;;2.67;1.80;;;;;;;;;;5115600;28;20710;-66
2022/10/10 08:30:17;;;;;;;2.45;1.60;;;;;;;;;;5116978;28;20253;-66
2022/10/10 08:32:45;;;;;;;2.35;1.90;;;;;;;;;;5116213;28;20600;-66
2022/10/10 08:35:14;;;;;;;2.25;1.80;;;;;;;;;;5116456;28;20230;-67
2022/10/10 08:37:41;;;;;;;1.75;1.60;;;;;;;;;;5116244;28;20582;-67
2022/10/10 08:40:11;;;;;;;2.90;1.63;;;;;;;;;;5115866;28;20230;-67
2022/10/10 08:42:40;;;;;;;3.47;1.80;;;;;;;;;;5115143;28;20306;-67
2022/10/10 08:45:11;;;;;;;1.88;1.70;;;;;;;;;;5115718;28;20257;-67
2022/10/10 08:47:40;;;;;;;2.05;1.80;;;;;;;;;;5115878;28;20209;-67
2022/10/10 08:50:12;;;;;;;2.88;1.65;;;;;;;;;;5115922;28;20297;-67
2022/10/10 08:52:42;;;;;;;2.72;1.77;;;;;;;;;;5116409;28;20642;-67
2022/10/10 08:55:15;;;;;;;2.08;1.70;;;;;;;;;;5116111;28;20222;-67
2022/10/10 08:57:48;;;;;;;2.60;1.75;;;;;;;;;;5116215;28;20306;-67
2022/10/10 09:00:17;;;;;;;2.05;1.85;;;;;;;;;;5116619;28;20202;-67
2022/10/10 09:02:49;;;;;;;2.17;1.98;;;;;;;;;;5115590;28;20301;-67
2022/10/10 09:05:18;;;;;;;2.42;1.70;;;;;;;;;;5115913;28;20630;-67
2022/10/10 09:08:03;;;;;;;3.67;1.65;;;;;;;;;;5114966;28;20225;-67
2022/10/10 09:10:39;;;;;;;2.20;2.00;;;;;;;;;;5114351;28;20242;-67
2022/10/10 09:13:10;;;;;;;2.33;2.00;;;;;;;;;;5114898;28;20302;-67
2022/10/10 09:15:44;;;;;;;1.70;1.60;;;;;;;;;;5132251;27;20191;-67
2022/10/10 09:18:15;;;;;;;2.20;1.88;;;;;;;;;;5135688;27;20282;-67
2022/10/10 09:20:48;;;;;;;2.10;1.75;;;;;;;;;;5116393;27;20200;-65
2022/10/10 09:23:20;;;;;;;1.83;1.70;;;;;;;;;;5109911;28;20223;-66
2022/10/10 09:25:51;;;;;;;2.35;2.00;;;;;;;;;;5114044;28;20223;-65
2022/10/10 09:28:20;;;;;;;3.10;2.20;;;;;;;;;;5114558;28;20299;-65
2022/10/10 09:30:51;;;;;;;3.38;1.90;;;;;;;;;;5115320;28;20242;-65
2022/10/10 09:33:24;;;;;;;2.33;2.00;;;;;;;;;;5110233;28;20224;-65
2022/10/10 09:35:53;;;;;;;3.47;1.83;;;;;;;;;;5094936;28;20249;-65
2022/10/10 09:38:26;;;;;;;3.10;1.80;;;;;;;;;;5094409;28;20571;-66
2022/10/10 09:40:58;;;;;;;3.05;1.90;;;;;;;;;;5073947;28;20388;-66
2022/10/10 09:43:30;;;;;;;3.03;1.75;;;;;;;;;;5076593;28;20208;-65
2022/10/10 09:45:57;;;;;;;2.47;1.80;;;;;;;;;;5074449;28;20220;-65
2022/10/10 09:48:28;;;;;;;1.92;1.67;;;;;;;;;;5076173;28;20215;-65
2022/10/10 09:50:55;;;;;;;2.08;1.80;;;;;;;;;;5091064;28;20203;-65
2022/10/10 09:53:23;;;;;;;1.90;1.70;;;;;;;;;;5094713;28;20290;-65
2022/10/10 09:55:52;;;;;;;2.22;1.80;;;;;;;;;;5094772;28;20276;-65
2022/10/10 09:58:26;;;;;;;2.25;2.05;;;;;;;;;;5094646;28;20225;-65
2022/10/10 10:00:53;;;;;;;2.58;2.05;;;;;;;;;;5096240;28;20650;-65
2022/10/10 10:03:22;;;;;;;2.67;1.80;;;;;;;;;;5096460;28;20203;-65
2022/10/10 10:05:55;;;;;;;1.98;1.77;;;;;;;;;;5095428;28;20231;-65
2022/10/10 10:08:25;;;;;;;2.22;1.67;;;;;;;;;;5094455;28;20306;-65
2022/10/10 10:10:56;;;;;;;1.70;1.60;;;;;;;;;;5094906;28;20235;-65
2022/10/10 10:13:27;;;;;;;2.17;1.73;;;;;;;;;;5094605;28;20203;-65
2022/10/10 10:15:59;;;;;;;2.20;2.00;;;;;;;;;;5102682;28;20593;-66
2022/10/10 10:18:28;;;;;;;2.72;1.52;;;;;;;;;;5093567;28;20234;-66
2022/10/10 10:21:09;;;;;;;1.67;1.55;;;;;;;;;;5094055;28;20675;-65
2022/10/10 10:23:41;;;;;;;2.30;1.67;;;;;;;;;;5093290;28;20199;-66
2022/10/10 10:26:15;;;;;;;2.33;1.73;;;;;;;;;;5094320;28;20227;-65
2022/10/10 10:28:44;;;;;;;2.03;1.63;;;;;;;;;;5094037;28;20239;-65
2022/10/10 10:31:16;;;;;;;2.00;1.80;;;;;;;;;;5093672;28;20696;-65
2022/10/10 10:33:47;;;;;;;1.60;1.50;;;;;;;;;;5093458;28;20243;-65
2022/10/10 10:36:24;;;;;;;1.83;1.73;;;;;;;;;;5093111;28;20529;-65
2022/10/10 10:38:53;;;;;;;2.08;1.88;;;;;;;;;;5096930;28;20226;-65
2022/10/10 10:41:26;;;;;;;3.13;1.70;;;;;;;;;;5113749;28;20236;-66
2022/10/10 10:44:02;;;;;;;1.77;1.60;;;;;;;;;;5116920;28;20301;-65
2022/10/10 10:46:35;;;;;;;2.35;1.80;;;;;;;;;;5118042;28;20322;-65
2022/10/10 10:49:06;;;;;;;2.00;1.90;;;;;;;;;;5118074;28;20797;-65
2022/10/10 10:51:51;;;;;;;2.05;1.60;;;;;;;;;;5118205;28;20238;-65
2022/10/10 10:54:25;;;;;;;1.73;1.63;;;;;;;;;;5076909;28;20263;-65
2022/10/10 10:56:54;;;;;;;1.73;1.63;;;;;;;;;;5117786;28;20259;-65
2022/10/10 10:59:39;;;;;;;1.80;1.70;;;;;;;;;;5117109;28;20808;-65
2022/10/10 11:02:23;;;;;;;1.83;1.67;;;;;;;;;;5117617;28;20237;-65
2022/10/10 11:04:56;;;;;;;1.55;1.45;;;;;;;;;;5117667;28;20211;-66
2022/10/10 11:07:25;;;;;;;2.58;1.65;;;;;;;;;;5116760;28;20227;-65
2022/10/10 11:09:56;;;;;;;2.80;1.55;;;;;;;;;;5116830;28;20282;-65
2022/10/10 11:12:30;;;;;;;3.58;1.88;;;;;;;;;;5117348;28;20581;-66
2022/10/10 11:14:59;;;;;;;2.45;1.60;;;;;;;;;;5116485;28;20199;-65
2022/10/10 11:17:32;;;;;;;2.75;1.70;;;;;;;;;;5117120;28;20230;-65
2022/10/10 11:20:02;;;;;;;1.95;1.58;;;;;;;;;;5117065;28;20207;-65
2022/10/10 11:22:31;;;;;;;1.60;1.50;;;;;;;;;;5117618;28;20195;-65
2022/10/10 11:25:00;;;;;;;2.10;1.33;;;;;;;;;;5116947;28;20238;-65
2022/10/10 11:27:31;;;;;;;1.92;1.60;;;;;;;;;;5116928;28;20222;-64
2022/10/10 11:30:01;;;;;;;1.98;1.77;;;;;;;;;;5116436;28;20203;-65
2022/10/10 11:32:34;;;;;;;2.80;1.65;;;;;;;;;;5116039;28;20626;-65
2022/10/10 11:35:10;;;;;;;1.65;1.40;;;;;;;;;;5116588;28;20293;-64
2022/10/10 11:37:41;;;;;;;2.35;1.60;;;;;;;;;;5116539;28;20289;-65
2022/10/10 11:40:15;;;;;;;2.00;1.70;;;;;;;;;;5115325;28;20258;-65
2022/10/10 11:42:47;;;;;;;2.33;1.65;;;;;;;;;;5116194;28;20267;-65
2022/10/10 11:45:17;;;;;;;1.70;1.60;;;;;;;;;;5116072;28;20657;-65
2022/10/10 11:47:48;;;;;;;2.17;1.95;;;;;;;;;;5115224;28;20313;-64
2022/10/10 11:50:19;;;;;;;2.00;1.75;;;;;;;;;;5115306;28;20234;-65
2022/10/10 11:52:48;;;;;;;2.55;1.50;;;;;;;;;;5116165;28;20622;-64
2022/10/10 11:55:19;;;;;;;25.73;2.75;;;;;;;;;;5116141;28;20306;-66
2022/10/10 11:57:48;;;;;;;2.03;1.63;;;;;;;;;;5116034;28;20759;-66
2022/10/10 12:00:17;;;;;;;4.20;1.80;;;;;;;;;;5116781;28;20234;-66
2022/10/10 12:02:46;;;;;;;2.20;1.60;;;;;;;;;;5114375;28;20264;-65
2022/10/10 12:05:25;;;;;;;1.48;1.38;;;;;;;;;;5116482;28;20238;-65
2022/10/10 12:08:02;;;;;;;1.50;1.40;;;;;;;;;;5116180;28;20647;-65
2022/10/10 12:10:31;;;;;;;1.73;1.63;;;;;;;;;;5115760;28;20899;-65
2022/10/10 12:13:02;;;;;;;1.50;1.40;;;;;;;;;;5116137;28;20266;-65
2022/10/10 12:15:31;;;;;;;1.45;1.35;;;;;;;;;;5116216;28;20203;-65
2022/10/10 12:17:59;;;;;;;2.47;1.60;;;;;;;;;;5116132;28;20195;-65
2022/10/10 12:20:35;;;;;;;1.90;1.58;;;;;;;;;;5115885;28;20202;-66
2022/10/10 12:23:17;;;;;;;2.58;1.80;;;;;;;;;;5114911;28;20295;-65
2022/10/10 12:25:45;;;;;;;1.75;1.65;;;;;;;;;;5115244;28;20213;-65
2022/10/10 12:28:25;;;;;;;2.50;1.70;;;;;;;;;;5115470;28;20250;-65
2022/10/10 12:31:23;;;;;;;1.58;1.48;;;;;;;;;;5115705;28;20263;-65
2022/10/10 12:34:05;;;;;;;2.15;1.70;;;;;;;;;;5031653;28;20634;-66
2022/10/10 12:36:50;;;;;;;1.70;1.60;;;;;;;;;;5104170;28;20694;-66
2022/10/10 12:39:38;;;;;;;1.60;1.50;;;;;;;;;;5074173;28;20235;-65
2022/10/10 12:42:25;;;;;;;1.60;1.50;;;;;;;;;;5115272;28;20234;-65
2022/10/10 12:44:52;;;;;;;1.70;1.60;;;;;;;;;;5115136;28;20707;-65
2022/10/10 12:47:29;;;;;;;1.63;1.52;;;;;;;;;;5114492;28;20223;-65
2022/10/10 12:49:57;;;;;;;1.77;1.67;;;;;;;;;;5115095;28;20587;-65
2022/10/10 12:52:26;;;;;;;1.65;1.55;;;;;;;;;;5115711;28;20653;-65
2022/10/10 12:54:56;;;;;;;1.65;1.45;;;;;;;;;;5109448;27;20876;-65
2022/10/10 12:57:27;;;;;;;1.40;1.27;;;;;;;;;;5094173;28;20200;-66
2022/10/10 12:59:54;;;;;;;1.70;1.60;;;;;;;;;;5093153;28;20243;-65
2022/10/10 13:02:24;;;;;;;1.70;1.60;;;;;;;;;;5109289;28;20318;-65
2022/10/10 13:04:54;;;;;;;2.33;1.42;;;;;;;;;;5113769;28;20534;-65
2022/10/10 13:07:22;;;;;;;1.50;1.40;;;;;;;;;;5114594;28;20222;-65
2022/10/10 13:09:51;;;;;;;1.98;1.50;;;;;;;;;;5114911;28;20546;-65
2022/10/10 13:12:27;;;;;;;1.52;1.42;;;;;;;;;;5114962;28;20305;-65
2022/10/10 13:14:55;;;;;;;1.50;1.38;;;;;;;;;;5108632;28;20280;-66
2022/10/10 13:17:26;;;;;;;1.98;1.70;;;;;;;;;;5094297;28;20235;-65
2022/10/10 13:19:54;;;;;;;1.80;1.70;;;;;;;;;;5093539;28;20211;-65
2022/10/10 13:22:23;;;;;;;2.20;1.80;;;;;;;;;;5093327;28;20212;-66
2022/10/10 13:24:51;;;;;;;2.00;1.80;;;;;;;;;;5093797;28;20285;-65
2022/10/10 13:27:20;;;;;;;1.98;1.88;;;;;;;;;;5093778;28;20259;-65
2022/10/10 13:29:49;;;;;;;4.13;2.10;;;;;;;;;;5109107;28;20256;-65
2022/10/10 13:32:18;;;;;;;3.10;1.85;;;;;;;;;;5114082;28;20277;-65
2022/10/10 13:34:49;;;;;;;2.00;1.90;;;;;;;;;;5114665;28;20307;-65
2022/10/10 13:37:18;;;;;;;2.10;1.90;;;;;;;;;;5114145;28;20605;-66
2022/10/10 13:39:45;;;;;;;2.80;2.60;;;;;;;;;;5113625;28;20257;-66
2022/10/10 13:42:24;;;;;;;2.55;2.35;;;;;;;;;;5113653;28;20314;-65
2022/10/10 13:44:54;;;;;;;2.40;2.08;;;;;;;;;;5113370;28;20201;-66
2022/10/10 13:47:47;;;;;;;2.53;2.33;;;;;;;;;;5113506;28;20721;-66
2022/10/10 13:50:19;;;;;;;2.30;2.10;;;;;;;;;;5114441;28;20202;-66
2022/10/10 13:52:46;;;;;;;2.55;2.35;;;;;;;;;;5113873;28;20301;-66
2022/10/10 13:55:15;;;;;;;2.72;2.45;;;;;;;;;;5113440;28;20294;-66
2022/10/10 13:57:42;;;;;;;3.65;2.50;;;;;;;;;;5112689;28;20632;-66
2022/10/10 14:00:18;;;;;;;3.13;2.25;;;;;;;;;;5113002;28;20226;-65
2022/10/10 14:02:45;;;;;;;2.60;2.22;;;;;;;;;;5112159;28;20228;-65
2022/10/10 14:05:16;;;;;;;2.72;2.50;;;;;;;;;;5112810;28;20301;-65
2022/10/10 14:07:48;;;;;;;3.03;2.38;;;;;;;;;;5114222;28;20314;-65
2022/10/10 14:10:19;;;;;;;2.60;2.20;;;;;;;;;;5113157;28;20199;-65
2022/10/10 14:12:50;;;;;;;3.88;2.50;;;;;;;;;;5113238;28;20639;-66
2022/10/10 14:15:35;;;;;;;2.45;2.25;;;;;;;;;;5112945;28;20234;-66
2022/10/10 14:18:03;;;;;;;2.80;2.60;;;;;;;;;;5116860;28;20222;-65
2022/10/10 14:20:30;;;;;;;2.97;2.40;;;;;;;;;;5117035;28;20671;-65
2022/10/10 14:23:00;;;;;;;2.60;2.38;;;;;;;;;;5117068;28;20227;-66
2022/10/10 14:25:27;;;;;;;3.15;2.30;;;;;;;;;;5116532;28;20264;-65
2022/10/10 14:27:55;;;;;;;2.45;2.25;;;;;;;;;;5117393;28;20258;-66
2022/10/10 14:30:22;;;;;;;2.45;2.25;;;;;;;;;;5116356;28;20303;-66
2022/10/10 14:32:51;;;;;;;2.95;2.60;;;;;;;;;;5117321;28;20241;-65
2022/10/10 14:35:18;;;;;;;2.70;2.50;;;;;;;;;;5116965;28;20314;-65
2022/10/10 14:37:46;;;;;;;2.47;2.20;;;;;;;;;;5116778;28;20350;-65
2022/10/10 14:40:18;;;;;;;2.20;2.00;;;;;;;;;;5117123;28;20683;-65
2022/10/10 14:42:46;;;;;;;2.35;1.90;;;;;;;;;;5116560;28;20495;-67
2022/10/10 14:45:14;;;;;;;3.00;2.45;;;;;;;;;;5117229;28;20228;-66
2022/10/10 14:47:41;;;;;;;2.38;2.15;;;;;;;;;;5117129;28;20232;-65
2022/10/10 14:50:16;;;;;;;2.40;2.20;;;;;;;;;;5117310;28;20285;-65
2022/10/10 14:52:44;;;;;;;2.33;2.10;;;;;;;;;;5116129;28;20645;-66
2022/10/10 14:55:12;;;;;;;2.75;2.38;;;;;;;;;;5117402;28;20844;-66
2022/10/10 14:57:40;;;;;;;2.88;2.13;;;;;;;;;;5116563;28;20199;-66
2022/10/10 15:00:09;;;;;;;3.50;2.35;;;;;;;;;;5116462;28;20286;-66